createdAt,value
2017-10-15T00:00:42.863Z,1027
2017-10-15T00:01:42.194Z,1027
2017-10-15T00:02:41.287Z,1027.1
2017-10-15T00:03:40.635Z,1027
2017-10-15T00:04:40.118Z,1027
2017-10-15T00:05:38.947Z,1027.1
2017-10-15T00:07:37.791Z,1027.1
2017-10-15T00:08:36.992Z,1027.1
2017-10-15T00:09:36.061Z,1027.1
2017-10-15T00:10:35.402Z,1027.1
2017-10-15T00:11:34.506Z,1027.1
2017-10-15T00:12:33.977Z,1027.1
2017-10-15T00:13:32.806Z,1027
2017-10-15T00:14:32.278Z,1027
2017-10-15T00:15:31.478Z,1027
2017-10-15T00:16:30.682Z,1027
2017-10-15T00:17:29.783Z,1027
2017-10-15T00:18:28.879Z,1027
2017-10-15T00:19:28.584Z,1027
2017-10-15T00:20:27.417Z,1027
2017-10-15T00:21:26.749Z,1027
2017-10-15T00:22:25.951Z,1027
2017-10-15T00:23:25.018Z,1027
2017-10-15T00:24:24.618Z,1027
2017-10-15T00:25:23.610Z,1027
2017-10-15T00:26:22.814Z,1027
2017-10-15T00:27:22.020Z,1027
2017-10-15T00:28:21.494Z,1027.1
2017-10-15T00:29:20.828Z,1027
2017-10-15T00:30:19.792Z,1027
2017-10-15T00:31:19.260Z,1027
2017-10-15T00:32:18.353Z,1027
2017-10-15T00:33:17.685Z,1026.9
2017-10-15T00:35:16.141Z,1027
2017-10-15T00:36:14.991Z,1026.9
2017-10-15T00:37:14.195Z,1026.9
2017-10-15T00:39:12.911Z,1026.9
2017-10-15T00:40:12.119Z,1026.9
2017-10-15T00:42:10.617Z,1026.8
2017-10-15T00:44:08.977Z,1026.9
2017-10-15T00:45:08.307Z,1026.9
2017-10-15T00:46:07.374Z,1026.8
2017-10-15T00:48:05.967Z,1026.8
2017-10-15T00:49:05.312Z,1026.9
2017-10-15T00:50:04.428Z,1026.8
2017-10-15T00:51:03.398Z,1026.9
2017-10-15T00:52:02.746Z,1026.8
2017-10-15T00:53:01.861Z,1026.8
2017-10-15T00:54:01.197Z,1026.8
2017-10-15T00:55:00.358Z,1026.8
2017-10-15T00:55:59.550Z,1026.8
2017-10-15T00:56:58.897Z,1026.8
2017-10-15T00:57:58.362Z,1026.8
2017-10-15T00:58:57.564Z,1026.9
2017-10-15T00:59:56.543Z,1026.8
2017-10-15T01:00:56.009Z,1026.9
2017-10-15T01:01:54.982Z,1026.9
2017-10-15T01:02:54.347Z,1026.9
2017-10-15T01:04:52.939Z,1026.8
2017-10-15T01:05:52.026Z,1026.8
2017-10-15T01:06:51.105Z,1026.8
2017-10-15T01:07:50.580Z,1026.8
2017-10-15T01:08:49.548Z,1026.8
2017-10-15T01:09:48.621Z,1026.8
2017-10-15T01:10:47.827Z,1026.8
2017-10-15T01:11:47.293Z,1026.8
2017-10-15T01:12:46.627Z,1026.8
2017-10-15T01:13:45.462Z,1026.8
2017-10-15T01:14:44.778Z,1026.8
2017-10-15T01:15:44.247Z,1026.8
2017-10-15T01:16:43.450Z,1026.8
2017-10-15T01:17:42.654Z,1026.8
2017-10-15T01:18:41.617Z,1026.8
2017-10-15T01:19:41.218Z,1026.8
2017-10-15T01:20:40.048Z,1026.8
2017-10-15T01:21:39.626Z,1026.8
2017-10-15T01:22:38.831Z,1026.8
2017-10-15T01:23:38.030Z,1026.8
2017-10-15T01:24:36.862Z,1026.8
2017-10-15T01:25:36.337Z,1026.8
2017-10-15T01:26:35.432Z,1026.8
2017-10-15T01:28:33.769Z,1026.8
2017-10-15T01:29:32.993Z,1026.8
2017-10-15T01:30:32.568Z,1026.8
2017-10-15T01:31:31.544Z,1026.8
2017-10-15T01:32:30.747Z,1026.8
2017-10-15T01:33:29.948Z,1026.8
2017-10-15T01:34:29.279Z,1026.8
2017-10-15T01:35:28.748Z,1026.8
2017-10-15T01:36:27.949Z,1026.8
2017-10-15T01:37:27.145Z,1026.8
2017-10-15T01:38:26.103Z,1026.8
2017-10-15T01:39:25.181Z,1026.8
2017-10-15T01:40:24.514Z,1026.9
2017-10-15T01:41:23.851Z,1026.8
2017-10-15T01:42:23.184Z,1026.8
2017-10-15T01:43:22.023Z,1026.8
2017-10-15T01:44:21.362Z,1026.8
2017-10-15T01:45:20.872Z,1026.8
2017-10-15T01:46:19.681Z,1026.8
2017-10-15T01:47:19.014Z,1026.8
2017-10-15T01:48:18.219Z,1026.8
2017-10-15T01:49:17.547Z,1026.8
2017-10-15T01:50:16.516Z,1026.8
2017-10-15T01:51:15.865Z,1026.8
2017-10-15T01:52:15.073Z,1026.8
2017-10-15T01:54:13.434Z,1026.8
2017-10-15T01:55:12.774Z,1026.8
2017-10-15T01:56:12.105Z,1026.8
2017-10-15T01:56:42.633Z,1026.8
2017-10-15T01:58:10.283Z,1026.7
2017-10-15T01:59:09.611Z,1026.7
2017-10-15T02:00:08.950Z,1026.7
2017-10-15T02:01:08.284Z,1026.7
2017-10-15T02:02:07.490Z,1026.7
2017-10-15T02:03:06.316Z,1026.7
2017-10-15T02:04:05.520Z,1026.7
2017-10-15T02:05:04.724Z,1026.7
2017-10-15T02:06:03.935Z,1026.6
2017-10-15T02:07:03.270Z,1026.6
2017-10-15T02:07:33.930Z,1026.6
2017-10-15T02:08:04.437Z,1026.7
2017-10-15T02:09:02.020Z,1026.6
2017-10-15T02:10:00.863Z,1026.7
2017-10-15T02:10:59.961Z,1026.6
2017-10-15T02:11:59.435Z,1026.6
2017-10-15T02:12:58.406Z,1026.6
2017-10-15T02:13:57.850Z,1026.6
2017-10-15T02:14:56.816Z,1026.6
2017-10-15T02:15:56.411Z,1026.6
2017-10-15T02:17:05.443Z,1026.7
2017-10-15T02:17:54.600Z,1026.7
2017-10-15T02:18:54.079Z,1026.7
2017-10-15T02:19:53.293Z,1026.7
2017-10-15T02:20:52.381Z,1026.7
2017-10-15T02:21:51.457Z,1026.7
2017-10-15T02:22:50.560Z,1026.7
2017-10-15T02:23:50.141Z,1026.7
2017-10-15T02:24:49.112Z,1026.7
2017-10-15T02:25:48.455Z,1026.7
2017-10-15T02:26:47.572Z,1026.7
2017-10-15T02:28:46.162Z,1026.7
2017-10-15T02:29:45.148Z,1026.7
2017-10-15T02:30:44.129Z,1026.7
2017-10-15T02:31:43.634Z,1026.7
2017-10-15T02:32:42.846Z,1026.7
2017-10-15T02:33:42.184Z,1026.7
2017-10-15T02:34:41.030Z,1026.8
2017-10-15T02:35:40.379Z,1026.8
2017-10-15T02:36:39.593Z,1026.8
2017-10-15T02:37:38.580Z,1026.8
2017-10-15T02:38:37.921Z,1026.8
2017-10-15T02:39:37.279Z,1026.8
2017-10-15T02:40:36.494Z,1026.8
2017-10-15T02:41:35.704Z,1026.8
2017-10-15T02:42:34.686Z,1026.8
2017-10-15T02:43:33.925Z,1026.8
2017-10-15T02:44:33.033Z,1026.8
2017-10-15T02:45:32.379Z,1026.8
2017-10-15T02:46:31.590Z,1026.8
2017-10-15T02:47:30.954Z,1026.8
2017-10-15T02:48:29.941Z,1026.7
2017-10-15T02:49:29.217Z,1026.7
2017-10-15T02:50:28.469Z,1026.7
2017-10-15T02:51:27.552Z,1026.7
2017-10-15T02:52:26.678Z,1026.7
2017-10-15T02:53:26.025Z,1026.7
2017-10-15T02:54:25.249Z,1026.7
2017-10-15T02:55:24.368Z,1026.7
2017-10-15T02:56:23.842Z,1026.7
2017-10-15T02:57:22.818Z,1026.7
2017-10-15T02:58:22.033Z,1026.7
2017-10-15T02:59:21.242Z,1026.7
2017-10-15T03:00:20.210Z,1026.7
2017-10-15T03:01:19.822Z,1026.7
2017-10-15T03:02:18.777Z,1026.8
2017-10-15T03:02:49.438Z,1026.8
2017-10-15T03:03:19.962Z,1026.7
2017-10-15T03:03:50.487Z,1026.7
2017-10-15T03:04:20.777Z,1026.7
2017-10-15T03:06:15.484Z,1026.7
2017-10-15T03:07:15.097Z,1026.7
2017-10-15T03:10:12.210Z,1026.7
2017-10-15T03:11:11.565Z,1026.7
2017-10-15T03:12:11.052Z,1026.7
2017-10-15T03:13:10.164Z,1026.7
2017-10-15T03:14:09.413Z,1026.7
2017-10-15T03:15:08.258Z,1026.7
2017-10-15T03:16:07.850Z,1026.7
2017-10-15T03:17:06.686Z,1026.7
2017-10-15T03:18:05.901Z,1026.7
2017-10-15T03:19:05.376Z,1026.7
2017-10-15T03:20:04.216Z,1026.7
2017-10-15T03:21:03.695Z,1026.7
2017-10-15T03:22:02.683Z,1026.7
2017-10-15T03:23:02.044Z,1026.7
2017-10-15T03:24:01.253Z,1026.7
2017-10-15T03:25:00.338Z,1026.7
2017-10-15T03:25:59.537Z,1026.7
2017-10-15T03:26:58.896Z,1026.7
2017-10-15T03:27:57.873Z,1026.8
2017-10-15T03:28:57.075Z,1026.8
2017-10-15T03:29:56.431Z,1026.8
2017-10-15T03:30:55.637Z,1026.8
2017-10-15T03:31:54.898Z,1026.8
2017-10-15T03:32:53.978Z,1026.8
2017-10-15T03:33:53.223Z,1026.8
2017-10-15T03:34:52.568Z,1026.8
2017-10-15T03:35:51.511Z,1026.8
2017-10-15T03:36:50.623Z,1026.8
2017-10-15T03:37:50.081Z,1026.8
2017-10-15T03:38:49.429Z,1026.8
2017-10-15T03:39:48.404Z,1026.8
2017-10-15T03:40:47.736Z,1026.8
2017-10-15T03:41:46.707Z,1026.8
2017-10-15T03:42:46.048Z,1026.8
2017-10-15T03:43:45.394Z,1026.7
2017-10-15T03:44:44.241Z,1026.8
2017-10-15T03:45:43.859Z,1026.8
2017-10-15T03:46:43.072Z,1026.8
2017-10-15T03:47:42.055Z,1026.8
2017-10-15T03:48:41.405Z,1026.8
2017-10-15T03:49:40.251Z,1026.7
2017-10-15T03:50:39.360Z,1026.8
2017-10-15T03:51:38.994Z,1026.8
2017-10-15T03:52:38.212Z,1026.8
2017-10-15T03:53:37.323Z,1026.8
2017-10-15T03:54:36.166Z,1026.8
2017-10-15T03:55:35.521Z,1026.8
2017-10-15T03:56:34.865Z,1026.9
2017-10-15T03:57:34.210Z,1026.8
2017-10-15T03:58:33.317Z,1026.9
2017-10-15T03:59:32.298Z,1026.9
2017-10-15T04:00:31.646Z,1026.9
2017-10-15T04:01:30.729Z,1026.9
2017-10-15T04:02:29.944Z,1026.9
2017-10-15T04:03:28.925Z,1026.9
2017-10-15T04:04:28.268Z,1027
2017-10-15T04:05:27.481Z,1026.9
2017-10-15T04:06:26.596Z,1027
2017-10-15T04:07:25.829Z,1027
2017-10-15T04:08:25.307Z,1027
2017-10-15T04:09:24.142Z,1027
2017-10-15T04:10:23.719Z,1027
2017-10-15T04:11:22.925Z,1027
2017-10-15T04:12:22.014Z,1027.1
2017-10-15T04:13:20.855Z,1027
2017-10-15T04:14:20.197Z,1027
2017-10-15T04:15:19.280Z,1027.1
2017-10-15T04:16:18.611Z,1027.1
2017-10-15T04:17:17.956Z,1027.1
2017-10-15T04:18:17.168Z,1027.1
2017-10-15T04:19:16.244Z,1027.1
2017-10-15T04:20:15.455Z,1027.1
2017-10-15T04:21:14.802Z,1027
2017-10-15T04:22:13.644Z,1027.1
2017-10-15T04:23:12.980Z,1027.1
2017-10-15T04:24:12.456Z,1027.1
2017-10-15T04:25:11.430Z,1027.1
2017-10-15T04:26:10.407Z,1027.1
2017-10-15T04:27:09.647Z,1027.1
2017-10-15T04:28:08.991Z,1027
2017-10-15T04:30:07.595Z,1027
2017-10-15T04:31:06.566Z,1027
2017-10-15T04:32:05.540Z,1027
2017-10-15T04:33:05.148Z,1026.9
2017-10-15T04:34:04.118Z,1026.9
2017-10-15T04:35:03.336Z,1026.9
2017-10-15T04:37:01.729Z,1026.9
2017-10-15T04:38:00.832Z,1026.9
2017-10-15T04:39:00.172Z,1026.9
2017-10-15T04:40:58.530Z,1026.9
2017-10-15T04:41:57.623Z,1026.9
2017-10-15T04:42:56.960Z,1026.9
2017-10-15T04:43:56.081Z,1026.9
2017-10-15T04:44:55.068Z,1026.9
2017-10-15T04:45:54.283Z,1026.9
2017-10-15T04:46:53.513Z,1026.9
2017-10-15T04:47:52.986Z,1026.9
2017-10-15T04:48:52.061Z,1026.9
2017-10-15T04:49:51.379Z,1026.9
2017-10-15T04:50:50.098Z,1026.9
2017-10-15T04:51:49.564Z,1026.9
2017-10-15T04:52:48.905Z,1026.9
2017-10-15T04:53:47.881Z,1026.9
2017-10-15T04:54:46.878Z,1026.9
2017-10-15T04:55:46.229Z,1026.9
2017-10-15T04:56:45.676Z,1026.9
2017-10-15T04:57:44.888Z,1026.9
2017-10-15T04:58:44.001Z,1026.9
2017-10-15T04:59:42.987Z,1026.9
2017-10-15T05:00:42.333Z,1026.9
2017-10-15T05:01:41.307Z,1027
2017-10-15T05:02:40.781Z,1027
2017-10-15T05:03:39.864Z,1027
2017-10-15T05:04:39.084Z,1027
2017-10-15T05:05:37.936Z,1026.9
2017-10-15T05:06:37.149Z,1027
2017-10-15T05:07:07.446Z,1027
2017-10-15T05:07:37.838Z,1026.9
2017-10-15T05:08:35.674Z,1027
2017-10-15T05:09:34.884Z,1027
2017-10-15T05:10:34.113Z,1027
2017-10-15T05:11:33.454Z,1027
2017-10-15T05:12:32.662Z,1027
2017-10-15T05:13:31.767Z,1026.9
2017-10-15T05:14:30.620Z,1027
2017-10-15T05:15:30.091Z,1027
2017-10-15T05:16:28.929Z,1027
2017-10-15T05:17:28.270Z,1027
2017-10-15T05:18:27.474Z,1027
2017-10-15T05:19:26.815Z,1027
2017-10-15T05:20:25.921Z,1027
2017-10-15T05:21:25.003Z,1027
2017-10-15T05:21:55.656Z,1027
2017-10-15T05:23:23.291Z,1027
2017-10-15T05:24:22.631Z,1027
2017-10-15T05:25:21.976Z,1027.1
2017-10-15T05:26:20.826Z,1027.1
2017-10-15T05:27:20.431Z,1027.1
2017-10-15T05:28:19.404Z,1027.1
2017-10-15T05:29:18.751Z,1027.1
2017-10-15T05:30:17.605Z,1027.1
2017-10-15T05:31:17.080Z,1027.1
2017-10-15T05:32:15.918Z,1027
2017-10-15T05:33:15.395Z,1027.1
2017-10-15T05:34:14.249Z,1027.1
2017-10-15T05:35:13.514Z,1027.1
2017-10-15T05:36:12.730Z,1027
2017-10-15T05:37:12.241Z,1027
2017-10-15T05:38:10.975Z,1027
2017-10-15T05:39:10.186Z,1027
2017-10-15T05:40:09.396Z,1027
2017-10-15T05:41:08.626Z,1027
2017-10-15T05:42:08.098Z,1027
2017-10-15T05:43:07.070Z,1027
2017-10-15T05:44:06.323Z,1027.1
2017-10-15T05:45:05.535Z,1027.1
2017-10-15T05:46:04.515Z,1027.1
2017-10-15T05:47:03.740Z,1027.1
2017-10-15T05:48:03.226Z,1027.1
2017-10-15T05:50:01.461Z,1027.1
2017-10-15T05:51:00.674Z,1027.1
2017-10-15T05:51:59.791Z,1027.1
2017-10-15T05:52:59.002Z,1027.1
2017-10-15T05:53:57.960Z,1027.1
2017-10-15T05:54:57.296Z,1027.2
2017-10-15T05:55:56.641Z,1027.2
2017-10-15T05:56:55.840Z,1027.1
2017-10-15T05:57:54.803Z,1027.2
2017-10-15T05:58:54.245Z,1027.2
2017-10-15T05:59:52.963Z,1027.1
2017-10-15T06:00:52.179Z,1027.2
2017-10-15T06:01:22.835Z,1027.2
2017-10-15T06:01:53.493Z,1027.2
2017-10-15T06:02:24.150Z,1027.2
2017-10-15T06:02:54.813Z,1027.2
2017-10-15T06:03:25.469Z,1027.2
2017-10-15T06:04:49.217Z,1027.2
2017-10-15T06:05:48.316Z,1027.2
2017-10-15T06:06:47.390Z,1027.2
2017-10-15T06:07:46.622Z,1027.2
2017-10-15T06:08:45.736Z,1027.2
2017-10-15T06:09:45.086Z,1027.2
2017-10-15T06:10:44.068Z,1027.2
2017-10-15T06:11:43.414Z,1027.3
2017-10-15T06:12:42.391Z,1027.3
2017-10-15T06:14:41.151Z,1027.3
2017-10-15T06:15:40.360Z,1027.3
2017-10-15T06:17:38.723Z,1027.3
2017-10-15T06:18:37.705Z,1027.3
2017-10-15T06:19:37.045Z,1027.3
2017-10-15T06:20:36.118Z,1027.3
2017-10-15T06:21:35.089Z,1027.3
2017-10-15T06:22:34.297Z,1027.3
2017-10-15T06:23:33.643Z,1027.3
2017-10-15T06:24:32.614Z,1027.4
2017-10-15T06:25:31.851Z,1027.3
2017-10-15T06:26:31.064Z,1027.3
2017-10-15T06:27:30.543Z,1027.4
2017-10-15T06:28:29.525Z,1027.4
2017-10-15T06:29:28.735Z,1027.4
2017-10-15T06:30:28.076Z,1027.4
2017-10-15T06:31:27.181Z,1027.4
2017-10-15T06:32:26.290Z,1027.4
2017-10-15T06:33:25.366Z,1027.4
2017-10-15T06:34:24.843Z,1027.4
2017-10-15T06:35:23.919Z,1027.4
2017-10-15T06:36:23.136Z,1027.4
2017-10-15T06:37:22.233Z,1027.4
2017-10-15T06:38:21.251Z,1027.4
2017-10-15T06:39:20.474Z,1027.5
2017-10-15T06:41:18.971Z,1027.5
2017-10-15T06:42:18.314Z,1027.5
2017-10-15T06:43:17.024Z,1027.5
2017-10-15T06:44:16.240Z,1027.5
2017-10-15T06:45:15.457Z,1027.5
2017-10-15T06:46:14.934Z,1027.5
2017-10-15T06:47:14.041Z,1027.5
2017-10-15T06:48:13.153Z,1027.5
2017-10-15T06:49:12.130Z,1027.5
2017-10-15T06:50:11.474Z,1027.5
2017-10-15T06:51:10.955Z,1027.5
2017-10-15T06:52:10.064Z,1027.5
2017-10-15T06:53:09.093Z,1027.5
2017-10-15T06:54:08.439Z,1027.6
2017-10-15T06:55:07.650Z,1027.5
2017-10-15T06:56:06.855Z,1027.6
2017-10-15T06:57:05.696Z,1027.6
2017-10-15T06:58:05.173Z,1027.6
2017-10-15T06:59:04.391Z,1027.6
2017-10-15T07:01:02.759Z,1027.6
2017-10-15T07:02:01.607Z,1027.6
2017-10-15T07:03:01.091Z,1027.6
2017-10-15T07:04:00.338Z,1027.6
2017-10-15T07:04:59.176Z,1027.6
2017-10-15T07:05:58.385Z,1027.6
2017-10-15T07:06:57.606Z,1027.6
2017-10-15T07:07:56.713Z,1027.6
2017-10-15T07:08:56.180Z,1027.6
2017-10-15T07:09:55.166Z,1027.6
2017-10-15T07:10:54.382Z,1027.6
2017-10-15T07:11:53.730Z,1027.6
2017-10-15T07:12:52.952Z,1027.6
2017-10-15T07:13:52.161Z,1027.6
2017-10-15T07:14:51.006Z,1027.6
2017-10-15T07:15:50.216Z,1027.7
2017-10-15T07:16:49.452Z,1027.6
2017-10-15T07:17:48.693Z,1027.7
2017-10-15T07:18:47.740Z,1027.7
2017-10-15T07:19:47.090Z,1027.7
2017-10-15T07:20:46.166Z,1027.7
2017-10-15T07:21:45.754Z,1027.6
2017-10-15T07:22:44.893Z,1027.6
2017-10-15T07:23:44.108Z,1027.6
2017-10-15T07:24:43.199Z,1027.6
2017-10-15T07:25:42.161Z,1027.6
2017-10-15T07:26:41.275Z,1027.6
2017-10-15T07:27:40.857Z,1027.6
2017-10-15T07:28:39.820Z,1027.6
2017-10-15T07:29:39.163Z,1027.6
2017-10-15T07:30:38.275Z,1027.7
2017-10-15T07:31:37.254Z,1027.7
2017-10-15T07:32:36.611Z,1027.7
2017-10-15T07:33:35.952Z,1027.6
2017-10-15T07:34:35.037Z,1027.6
2017-10-15T07:35:34.387Z,1027.6
2017-10-15T07:36:33.339Z,1027.7
2017-10-15T07:37:32.802Z,1027.6
2017-10-15T07:38:31.779Z,1027.7
2017-10-15T07:39:30.753Z,1027.6
2017-10-15T07:40:30.340Z,1027.6
2017-10-15T07:41:29.176Z,1027.6
2017-10-15T07:42:28.382Z,1027.6
2017-10-15T07:43:27.729Z,1027.5
2017-10-15T07:44:27.067Z,1027.6
2017-10-15T07:45:26.181Z,1027.6
2017-10-15T07:46:25.290Z,1027.6
2017-10-15T07:47:24.388Z,1027.6
2017-10-15T07:48:23.727Z,1027.6
2017-10-15T07:49:23.084Z,1027.6
2017-10-15T07:50:21.926Z,1027.6
2017-10-15T07:51:21.144Z,1027.6
2017-10-15T07:52:20.379Z,1027.7
2017-10-15T07:53:19.463Z,1027.6
2017-10-15T07:54:18.809Z,1027.6
2017-10-15T07:55:18.296Z,1027.6
2017-10-15T07:56:17.508Z,1027.6
2017-10-15T07:57:16.353Z,1027.6
2017-10-15T07:58:15.836Z,1027.6
2017-10-15T07:59:15.069Z,1027.5
2017-10-15T08:00:13.909Z,1027.5
2017-10-15T08:01:13.141Z,1027.5
2017-10-15T08:02:12.486Z,1027.5
2017-10-15T08:03:11.725Z,1027.5
2017-10-15T08:04:11.068Z,1027.5
2017-10-15T08:05:09.923Z,1027.5
2017-10-15T08:06:09.543Z,1027.5
2017-10-15T08:07:08.380Z,1027.5
2017-10-15T08:08:07.729Z,1027.6
2017-10-15T08:09:07.083Z,1027.6
2017-10-15T08:11:05.311Z,1027.5
2017-10-15T08:12:04.526Z,1027.6
2017-10-15T08:13:03.867Z,1027.6
2017-10-15T08:14:02.842Z,1027.5
2017-10-15T08:15:02.329Z,1027.5
2017-10-15T08:16:01.541Z,1027.6
2017-10-15T08:17:00.393Z,1027.6
2017-10-15T08:17:59.743Z,1027.6
2017-10-15T08:20:57.525Z,1027.5
2017-10-15T08:21:56.622Z,1027.6
2017-10-15T08:22:55.598Z,1027.6
2017-10-15T08:23:54.814Z,1027.6
